Time;durP1;ratioP1;P1;durP2;ratioP2;P2;SDS_P1;SDS_P2;PMS_P1;PMS_P2;Temp;Humidity;BMP_temperature;BMP_pressure;BME280_temperature;BME280_humidity;BME280_pressure;Samples;Min_cycle;Max_cycle;Signal;HPM_P1;HPM_P2
2024/02/01 00:02:18;;;;;;;7.27;4.77;;;;;;;;;;5034664;28;20485;-68
2024/02/01 00:04:45;;;;;;;5.60;5.10;;;;;;;;;;5034659;28;20472;-68
2024/02/01 00:07:12;;;;;;;7.63;5.97;;;;;;;;;;5034509;28;20449;-68
2024/02/01 00:09:40;;;;;;;5.37;4.87;;;;;;;;;;5034197;28;20453;-68
2024/02/01 00:12:07;;;;;;;5.30;4.47;;;;;;;;;;5034584;28;20536;-66
2024/02/01 00:14:34;;;;;;;5.33;4.83;;;;;;;;;;5034504;28;20452;-66
2024/02/01 00:17:01;;;;;;;5.73;4.80;;;;;;;;;;5034395;28;20445;-65
2024/02/01 00:19:28;;;;;;;6.10;5.33;;;;;;;;;;5034322;28;20805;-65
2024/02/01 00:21:55;;;;;;;5.67;5.13;;;;;;;;;;5034104;28;20453;-65
2024/02/01 00:24:22;;;;;;;5.63;4.70;;;;;;;;;;5034155;28;20532;-65
2024/02/01 00:26:50;;;;;;;5.47;4.93;;;;;;;;;;5034003;28;20487;-66
2024/02/01 00:29:17;;;;;;;5.23;4.80;;;;;;;;;;5034213;28;20452;-66
2024/02/01 00:31:44;;;;;;;5.90;5.40;;;;;;;;;;5034115;28;20532;-65
2024/02/01 00:34:11;;;;;;;5.50;4.70;;;;;;;;;;5034057;28;20535;-65
2024/02/01 00:36:38;;;;;;;6.07;5.10;;;;;;;;;;5033915;28;20442;-66
2024/02/01 00:39:05;;;;;;;4.90;4.57;;;;;;;;;;5034065;28;20445;-65
2024/02/01 00:41:31;;;;;;;8.60;5.80;;;;;;;;;;5033916;28;20527;-65
2024/02/01 00:44:00;;;;;;;6.43;4.93;;;;;;;;;;5033901;28;20898;-66
2024/02/01 00:46:27;;;;;;;7.47;5.17;;;;;;;;;;5033843;28;20541;-65
2024/02/01 00:48:54;;;;;;;5.73;5.13;;;;;;;;;;5033698;28;20452;-65
2024/02/01 00:51:20;;;;;;;4.97;4.27;;;;;;;;;;5033561;28;20895;-65
2024/02/01 00:53:47;;;;;;;5.97;4.97;;;;;;;;;;5033735;28;20532;-66
2024/02/01 00:56:14;;;;;;;5.83;5.33;;;;;;;;;;5033750;28;20995;-66
2024/02/01 00:58:42;;;;;;;5.80;4.63;;;;;;;;;;5033674;28;20441;-65
2024/02/01 01:01:11;;;;;;;5.67;5.07;;;;;;;;;;5033512;28;20449;-66
2024/02/01 01:03:37;;;;;;;5.60;5.10;;;;;;;;;;5033368;28;20480;-66
2024/02/01 01:06:05;;;;;;;4.53;4.23;;;;;;;;;;5033565;28;20544;-65
2024/02/01 01:08:32;;;;;;;5.93;4.80;;;;;;;;;;5033511;28;20441;-65
2024/02/01 01:10:59;;;;;;;5.23;4.83;;;;;;;;;;5033437;28;20477;-65
2024/02/01 01:13:25;;;;;;;6.43;5.33;;;;;;;;;;5033320;28;20445;-65
2024/02/01 01:15:52;;;;;;;5.37;4.87;;;;;;;;;;5033321;28;20853;-65
2024/02/01 01:18:21;;;;;;;5.30;4.73;;;;;;;;;;5033170;28;20481;-65
2024/02/01 01:20:48;;;;;;;5.90;5.40;;;;;;;;;;5032710;28;20451;-66
2024/02/01 01:23:15;;;;;;;5.27;4.77;;;;;;;;;;5033205;28;20546;-65
2024/02/01 01:25:41;;;;;;;8.43;6.07;;;;;;;;;;5033066;28;20480;-65
2024/02/01 01:28:08;;;;;;;5.40;4.90;;;;;;;;;;5033244;28;20520;-65
2024/02/01 01:30:35;;;;;;;6.33;5.73;;;;;;;;;;5033071;28;20885;-65
2024/02/01 01:33:02;;;;;;;7.63;6.17;;;;;;;;;;5033001;28;20608;-65
2024/02/01 01:35:30;;;;;;;5.97;5.37;;;;;;;;;;5033190;28;20455;-65
2024/02/01 01:37:57;;;;;;;7.15;5.43;;;;;;;;;;5033186;28;20536;-66
2024/02/01 01:40:25;;;;;;;8.73;6.60;;;;;;;;;;5033053;28;20642;-66
2024/02/01 01:42:52;;;;;;;7.30;5.73;;;;;;;;;;5032874;28;20487;-65
2024/02/01 01:45:19;;;;;;;5.50;5.00;;;;;;;;;;5032855;28;20445;-65
2024/02/01 01:47:46;;;;;;;6.47;5.63;;;;;;;;;;5033033;28;20445;-65
2024/02/01 01:50:13;;;;;;;5.83;5.23;;;;;;;;;;5032975;28;20537;-65
2024/02/01 01:52:42;;;;;;;9.03;5.00;;;;;;;;;;5032911;28;20544;-66
2024/02/01 01:55:10;;;;;;;5.97;5.37;;;;;;;;;;5032889;28;20539;-65
2024/02/01 01:57:37;;;;;;;6.57;5.97;;;;;;;;;;5032777;28;20455;-65
2024/02/01 02:00:05;;;;;;;4.33;4.03;;;;;;;;;;5032728;28;20876;-65
2024/02/01 02:02:33;;;;;;;8.10;4.93;;;;;;;;;;5032643;28;20945;-65
2024/02/01 02:05:01;;;;;;;5.80;5.30;;;;;;;;;;5032850;28;20450;-65
2024/02/01 02:07:28;;;;;;;4.97;4.47;;;;;;;;;;5032766;28;20441;-65
2024/02/01 02:10:00;;;;;;;8.47;5.73;;;;;;;;;;5032673;28;20532;-65
2024/02/01 02:12:27;;;;;;;6.13;5.53;;;;;;;;;;5032654;28;21008;-66
2024/02/01 02:15:00;;;;;;;5.20;4.70;;;;;;;;;;5032534;28;20941;-65
2024/02/01 02:17:27;;;;;;;5.50;5.00;;;;;;;;;;5032730;28;20528;-65
2024/02/01 02:19:54;;;;;;;6.03;4.60;;;;;;;;;;5032660;28;20540;-65
2024/02/01 02:22:23;;;;;;;6.07;5.33;;;;;;;;;;5032581;28;20214;-65
2024/02/01 02:24:51;;;;;;;7.10;4.77;;;;;;;;;;5032533;28;20451;-65
2024/02/01 02:27:20;;;;;;;4.60;4.20;;;;;;;;;;5032370;28;20476;-65
2024/02/01 02:29:47;;;;;;;5.27;4.77;;;;;;;;;;5032628;28;20444;-66
2024/02/01 02:32:14;;;;;;;5.70;4.57;;;;;;;;;;5034499;28;20528;-65
2024/02/01 02:34:41;;;;;;;5.33;4.80;;;;;;;;;;5036382;28;20449;-66
2024/02/01 02:37:08;;;;;;;5.53;4.90;;;;;;;;;;5036228;28;20456;-65
2024/02/01 02:39:37;;;;;;;6.20;4.33;;;;;;;;;;5036021;28;20445;-65
2024/02/01 02:42:04;;;;;;;5.63;5.07;;;;;;;;;;5036242;28;20448;-65
2024/02/01 02:44:31;;;;;;;7.10;4.67;;;;;;;;;;5036109;28;20584;-65
2024/02/01 02:46:58;;;;;;;5.97;4.37;;;;;;;;;;5036180;28;20451;-65
2024/02/01 02:49:25;;;;;;;9.63;4.90;;;;;;;;;;5035960;28;20476;-65
2024/02/01 02:51:52;;;;;;;8.50;5.23;;;;;;;;;;5035992;28;20552;-65
2024/02/01 02:54:19;;;;;;;6.25;4.07;;;;;;;;;;5035815;28;20441;-65
2024/02/01 02:56:47;;;;;;;5.63;4.43;;;;;;;;;;5036074;28;20193;-66
2024/02/01 02:59:14;;;;;;;6.30;5.33;;;;;;;;;;5035994;28;20445;-65
2024/02/01 03:01:42;;;;;;;5.13;4.63;;;;;;;;;;5035845;28;20885;-65
2024/02/01 03:04:09;;;;;;;6.15;5.40;;;;;;;;;;5035690;28;20488;-65
2024/02/01 03:06:36;;;;;;;9.10;4.93;;;;;;;;;;5035588;28;20241;-66
2024/02/01 03:09:03;;;;;;;4.93;4.43;;;;;;;;;;5035802;28;20537;-65
2024/02/01 03:11:30;;;;;;;6.38;4.95;;;;;;;;;;5035723;28;20481;-65
2024/02/01 03:13:58;;;;;;;6.10;5.00;;;;;;;;;;5035643;28;20197;-65
2024/02/01 03:16:25;;;;;;;6.50;5.27;;;;;;;;;;5035483;28;20889;-65
2024/02/01 03:18:52;;;;;;;5.55;4.85;;;;;;;;;;5035416;28;20539;-65
2024/02/01 03:21:21;;;;;;;5.67;4.93;;;;;;;;;;5035292;28;20623;-65
2024/02/01 03:23:48;;;;;;;6.60;5.13;;;;;;;;;;5035652;28;20481;-66
2024/02/01 03:26:17;;;;;;;7.00;5.27;;;;;;;;;;5035144;28;20473;-66
2024/02/01 03:28:47;;;;;;;6.22;5.63;;;;;;;;;;5035208;28;20449;-65
2024/02/01 03:31:15;;;;;;;5.97;5.30;;;;;;;;;;5035149;28;20260;-65
2024/02/01 03:33:44;;;;;;;6.00;4.93;;;;;;;;;;5035116;28;20809;-66
2024/02/01 03:36:12;;;;;;;6.13;5.53;;;;;;;;;;5035279;28;20486;-65
2024/02/01 03:38:42;;;;;;;9.40;4.90;;;;;;;;;;5035246;28;20949;-65
2024/02/01 03:41:11;;;;;;;4.78;4.30;;;;;;;;;;5035147;28;20477;-65
2024/02/01 03:43:38;;;;;;;6.88;4.80;;;;;;;;;;5034268;28;20583;-65
2024/02/01 03:46:05;;;;;;;5.63;5.03;;;;;;;;;;5034921;28;20714;-66
2024/02/01 03:48:33;;;;;;;5.40;5.00;;;;;;;;;;5034785;28;20281;-65
2024/02/01 03:51:02;;;;;;;5.88;5.28;;;;;;;;;;5034990;28;20937;-66
2024/02/01 03:53:29;;;;;;;6.80;4.93;;;;;;;;;;5034671;28;20712;-65
2024/02/01 03:55:56;;;;;;;6.63;5.43;;;;;;;;;;5034862;28;20476;-65
2024/02/01 03:58:25;;;;;;;6.70;5.77;;;;;;;;;;5034673;28;20451;-65
2024/02/01 04:00:52;;;;;;;6.93;4.40;;;;;;;;;;5034609;28;20535;-65
2024/02/01 04:03:19;;;;;;;6.00;5.47;;;;;;;;;;5034699;28;20560;-65
2024/02/01 04:05:47;;;;;;;5.55;5.05;;;;;;;;;;5034685;28;20194;-65
2024/02/01 04:08:18;;;;;;;7.87;5.87;;;;;;;;;;5034537;28;20222;-65
2024/02/01 04:10:45;;;;;;;14.93;6.43;;;;;;;;;;5034464;28;20445;-65
2024/02/01 04:13:13;;;;;;;6.03;4.90;;;;;;;;;;5034354;28;20449;-65
2024/02/01 04:15:40;;;;;;;5.73;5.23;;;;;;;;;;5034305;28;20277;-66
2024/02/01 04:18:07;;;;;;;5.17;4.67;;;;;;;;;;5034653;28;20825;-65
2024/02/01 04:20:34;;;;;;;9.17;5.27;;;;;;;;;;5034426;28;20536;-66
2024/02/01 04:23:03;;;;;;;4.75;4.35;;;;;;;;;;5034238;28;20654;-66
2024/02/01 04:25:30;;;;;;;5.90;4.50;;;;;;;;;;5034140;28;20214;-65
2024/02/01 04:27:57;;;;;;;7.67;5.10;;;;;;;;;;5034140;28;20503;-66
2024/02/01 04:30:24;;;;;;;6.97;6.30;;;;;;;;;;5034309;28;20476;-66
2024/02/01 04:32:51;;;;;;;7.27;5.47;;;;;;;;;;5034353;28;20543;-66
2024/02/01 04:35:18;;;;;;;7.43;5.53;;;;;;;;;;5034103;28;20540;-65
2024/02/01 04:37:52;;;;;;;5.70;5.20;;;;;;;;;;5033966;28;20222;-65
2024/02/01 04:40:21;;;;;;;5.60;5.10;;;;;;;;;;5033811;28;20194;-65
2024/02/01 04:42:51;;;;;;;6.20;5.50;;;;;;;;;;5034044;28;20452;-66
2024/02/01 04:45:18;;;;;;;7.00;5.80;;;;;;;;;;5033872;28;20516;-66
2024/02/01 04:47:45;;;;;;;6.70;5.30;;;;;;;;;;5033903;28;20571;-67
2024/02/01 04:50:13;;;;;;;6.30;5.70;;;;;;;;;;5033849;28;20530;-68
2024/02/01 04:52:40;;;;;;;7.07;5.60;;;;;;;;;;5033700;28;20444;-68
2024/02/01 04:55:09;;;;;;;10.20;6.20;;;;;;;;;;5032661;28;20817;-68
2024/02/01 04:57:38;;;;;;;7.80;5.90;;;;;;;;;;5033727;28;20445;-68
2024/02/01 05:00:13;;;;;;;7.18;5.20;;;;;;;;;;5033699;28;20190;-68
2024/02/01 05:02:40;;;;;;;7.17;5.90;;;;;;;;;;5033228;28;20673;-68
2024/02/01 05:05:07;;;;;;;7.97;5.80;;;;;;;;;;5033472;28;20480;-68
2024/02/01 05:07:34;;;;;;;5.73;5.23;;;;;;;;;;5033312;28;20507;-68
2024/02/01 05:10:01;;;;;;;5.47;4.97;;;;;;;;;;5033485;28;20540;-68
2024/02/01 05:12:28;;;;;;;6.40;5.80;;;;;;;;;;5033458;28;20537;-68
2024/02/01 05:14:57;;;;;;;6.60;6.10;;;;;;;;;;5033383;28;20449;-68
2024/02/01 05:17:24;;;;;;;6.97;6.37;;;;;;;;;;5033270;28;20854;-68
2024/02/01 05:19:51;;;;;;;8.38;6.82;;;;;;;;;;5033182;28;20536;-68
2024/02/01 05:22:18;;;;;;;9.37;6.63;;;;;;;;;;5033127;28;20281;-68
2024/02/01 05:24:45;;;;;;;8.90;6.80;;;;;;;;;;5033284;28;21106;-66
2024/02/01 05:27:12;;;;;;;8.37;6.10;;;;;;;;;;5033154;28;20472;-68
2024/02/01 05:29:40;;;;;;;10.87;6.37;;;;;;;;;;5033163;28;20825;-68
2024/02/01 05:32:08;;;;;;;9.73;7.73;;;;;;;;;;5033052;28;20536;-68
2024/02/01 05:34:35;;;;;;;8.23;7.03;;;;;;;;;;5032888;28;21009;-68
2024/02/01 05:37:02;;;;;;;10.60;7.80;;;;;;;;;;5033146;28;20453;-66
2024/02/01 05:39:29;;;;;;;12.03;7.70;;;;;;;;;;5033140;28;20540;-66
2024/02/01 05:41:57;;;;;;;9.20;7.97;;;;;;;;;;5032822;28;20498;-66
2024/02/01 05:44:24;;;;;;;9.07;7.90;;;;;;;;;;5032785;28;20906;-66
2024/02/01 05:46:53;;;;;;;8.13;7.43;;;;;;;;;;5032778;28;21001;-66
2024/02/01 05:49:22;;;;;;;10.13;8.00;;;;;;;;;;5032698;28;20453;-66
2024/02/01 05:51:49;;;;;;;8.63;7.47;;;;;;;;;;5032936;28;20480;-66
2024/02/01 05:54:17;;;;;;;8.17;7.37;;;;;;;;;;5032952;28;20507;-66
2024/02/01 05:56:44;;;;;;;9.10;8.20;;;;;;;;;;5032719;28;20791;-66
2024/02/01 05:59:13;;;;;;;9.07;8.17;;;;;;;;;;5032709;28;20528;-66
2024/02/01 06:01:40;;;;;;;10.27;9.27;;;;;;;;;;5032584;28;20457;-66
2024/02/01 06:04:07;;;;;;;10.53;9.60;;;;;;;;;;5032890;28;20479;-68
2024/02/01 06:06:36;;;;;;;10.20;9.07;;;;;;;;;;5033617;28;20518;-68
2024/02/01 06:09:04;;;;;;;9.10;8.17;;;;;;;;;;5036697;28;20445;-69
2024/02/01 06:11:31;;;;;;;10.17;8.50;;;;;;;;;;5036721;28;20445;-68
2024/02/01 06:13:58;;;;;;;9.70;8.80;;;;;;;;;;5036635;28;20453;-68
2024/02/01 06:16:25;;;;;;;10.20;9.10;;;;;;;;;;5036529;28;20544;-68
2024/02/01 06:18:52;;;;;;;10.53;9.53;;;;;;;;;;5036501;28;20460;-66
2024/02/01 06:21:19;;;;;;;9.63;8.77;;;;;;;;;;5036516;28;20540;-68
2024/02/01 06:23:48;;;;;;;10.90;9.80;;;;;;;;;;5036427;28;20472;-68
2024/02/01 06:26:21;;;;;;;12.80;10.47;;;;;;;;;;5036357;28;20479;-68
2024/02/01 06:28:48;;;;;;;11.27;9.87;;;;;;;;;;5036251;28;20445;-68
2024/02/01 06:31:15;;;;;;;9.73;8.73;;;;;;;;;;5036422;28;20523;-69
2024/02/01 06:33:42;;;;;;;11.37;9.30;;;;;;;;;;5036383;28;21069;-68
2024/02/01 06:36:13;;;;;;;12.53;10.70;;;;;;;;;;5036196;28;20532;-68
2024/02/01 06:39:06;;;;;;;10.13;9.13;;;;;;;;;;5036249;28;20453;-66
2024/02/01 06:41:46;;;;;;;10.73;9.63;;;;;;;;;;5036043;28;20446;-66
2024/02/01 06:44:21;;;;;;;11.27;10.07;;;;;;;;;;5036051;28;20480;-66
2024/02/01 06:47:06;;;;;;;10.37;9.37;;;;;;;;;;5036010;28;20423;-66
2024/02/01 06:49:59;;;;;;;10.20;9.20;;;;;;;;;;5035994;28;20436;-69
2024/02/01 06:52:35;;;;;;;10.67;9.70;;;;;;;;;;5036025;28;20798;-68
2024/02/01 06:55:24;;;;;;;11.00;9.50;;;;;;;;;;5035843;28;20444;-66
2024/02/01 07:00:51;;;;;;;10.90;9.30;;;;;;;;;;5034821;28;20433;-66
2024/02/01 07:03:44;;;;;;;9.80;8.80;;;;;;;;;;5035669;28;20445;-66
2024/02/01 07:06:25;;;;;;;10.17;9.10;;;;;;;;;;5035555;28;20492;-67
2024/02/01 07:08:52;;;;;;;14.83;9.90;;;;;;;;;;5035959;28;20495;-66
2024/02/01 07:11:27;;;;;;;10.97;9.33;;;;;;;;;;5035583;28;20457;-69
2024/02/01 07:14:00;;;;;;;11.60;9.40;;;;;;;;;;5035639;28;20449;-67
2024/02/01 07:16:38;;;;;;;10.10;9.10;;;;;;;;;;5035580;28;20471;-66
2024/02/01 07:19:12;;;;;;;10.93;9.70;;;;;;;;;;5034623;28;20441;-67
2024/02/01 07:22:00;;;;;;;11.13;9.60;;;;;;;;;;5035576;28;20444;-67
2024/02/01 07:24:38;;;;;;;11.83;9.97;;;;;;;;;;5035302;28;20807;-67
2024/02/01 07:57:51;;;;;;;10.37;9.37;;;;;;;;;;5000836;28;20469;-66
2024/02/01 08:00:19;;;;;;;11.27;9.57;;;;;;;;;;5034474;28;20812;-66
2024/02/01 08:02:50;;;;;;;8.23;7.47;;;;;;;;;;5034692;28;20453;-67
2024/02/01 08:08:03;;;;;;;10.40;9.40;;;;;;;;;;5034307;28;20460;-66
2024/02/01 08:10:30;;;;;;;11.63;8.90;;;;;;;;;;5034072;28;20499;-68
2024/02/01 08:13:04;;;;;;;11.50;8.60;;;;;;;;;;5033865;28;20751;-72
2024/02/01 08:15:32;;;;;;;10.30;9.20;;;;;;;;;;5034453;28;20485;-66
2024/02/01 08:18:04;;;;;;;8.07;7.37;;;;;;;;;;5033760;28;20476;-69
2024/02/01 08:20:34;;;;;;;9.90;8.50;;;;;;;;;;5033976;28;20449;-65
2024/02/01 08:23:01;;;;;;;11.03;7.70;;;;;;;;;;5034062;28;20453;-72
2024/02/01 08:25:30;;;;;;;8.37;7.57;;;;;;;;;;5033631;28;20493;-66
2024/02/01 08:27:57;;;;;;;9.20;7.30;;;;;;;;;;5034183;28;20443;-69
2024/02/01 08:30:27;;;;;;;9.50;7.50;;;;;;;;;;5033978;28;20528;-64
2024/02/01 08:32:57;;;;;;;8.40;7.60;;;;;;;;;;5033901;28;20448;-63
2024/02/01 08:35:26;;;;;;;8.03;7.23;;;;;;;;;;5034003;28;20814;-65
2024/02/01 08:37:55;;;;;;;9.83;8.33;;;;;;;;;;5033777;28;20532;-63
2024/02/01 08:40:22;;;;;;;7.40;6.70;;;;;;;;;;5033927;28;20445;-65
2024/02/01 08:42:50;;;;;;;7.00;6.47;;;;;;;;;;5033784;28;20451;-63
2024/02/01 08:45:18;;;;;;;6.50;5.90;;;;;;;;;;5033741;28;20564;-64
2024/02/01 08:47:45;;;;;;;10.30;5.50;;;;;;;;;;5033788;28;20536;-63
2024/02/01 08:50:13;;;;;;;5.83;5.20;;;;;;;;;;5033475;28;20447;-62
2024/02/01 08:52:45;;;;;;;5.07;4.67;;;;;;;;;;5033745;28;20449;-62
2024/02/01 08:55:14;;;;;;;5.83;5.00;;;;;;;;;;5033616;28;20449;-63
2024/02/01 08:57:41;;;;;;;6.30;5.20;;;;;;;;;;5033542;28;20450;-63
2024/02/01 09:00:25;;;;;;;8.53;5.10;;;;;;;;;;5033430;28;20445;-63
2024/02/01 09:03:03;;;;;;;4.80;4.50;;;;;;;;;;5033323;28;20449;-63
2024/02/01 09:05:30;;;;;;;5.10;3.63;;;;;;;;;;5032907;28;20491;-66
2024/02/01 09:07:59;;;;;;;6.33;4.17;;;;;;;;;;5033390;28;20480;-67
2024/02/01 09:10:26;;;;;;;7.53;3.93;;;;;;;;;;5033256;28;20536;-66
2024/02/01 09:12:54;;;;;;;8.23;3.80;;;;;;;;;;5033080;28;20499;-69
2024/02/01 09:15:21;;;;;;;6.03;3.80;;;;;;;;;;5033114;28;20511;-60
2024/02/01 09:17:48;;;;;;;5.40;3.93;;;;;;;;;;5032739;28;20535;-62
2024/02/01 09:20:21;;;;;;;4.83;3.53;;;;;;;;;;5033271;28;20445;-67
2024/02/01 09:22:49;;;;;;;5.17;3.23;;;;;;;;;;5033275;28;20809;-67
2024/02/01 09:25:19;;;;;;;5.67;3.20;;;;;;;;;;5032745;28;20796;-67
2024/02/01 09:27:46;;;;;;;6.07;2.83;;;;;;;;;;5032929;28;20885;-69
2024/02/01 09:30:16;;;;;;;7.73;2.80;;;;;;;;;;5033057;28;20445;-71
2024/02/01 09:32:43;;;;;;;7.90;2.90;;;;;;;;;;5033068;28;20548;-69
2024/02/01 09:35:10;;;;;;;2.90;2.60;;;;;;;;;;5033036;28;20448;-69
2024/02/01 09:37:37;;;;;;;5.77;2.57;;;;;;;;;;5032812;28;20960;-65
2024/02/01 09:40:09;;;;;;;7.80;2.80;;;;;;;;;;5032777;28;20909;-67
2024/02/01 09:42:38;;;;;;;8.77;3.07;;;;;;;;;;5032223;28;20449;-67
2024/02/01 09:45:06;;;;;;;6.57;2.63;;;;;;;;;;5032860;28;20487;-67
2024/02/01 09:47:43;;;;;;;9.77;4.47;;;;;;;;;;5032906;28;20445;-67
2024/02/01 09:50:12;;;;;;;6.83;2.57;;;;;;;;;;5032873;28;20449;-67
2024/02/01 09:52:39;;;;;;;9.50;3.27;;;;;;;;;;5032815;28;20820;-67
2024/02/01 09:55:07;;;;;;;4.50;2.30;;;;;;;;;;5032632;28;20817;-68
2024/02/01 09:57:40;;;;;;;7.37;2.70;;;;;;;;;;5032564;28;20453;-68
2024/02/01 10:00:12;;;;;;;7.10;2.30;;;;;;;;;;5032780;28;20456;-64
2024/02/01 10:02:40;;;;;;;5.67;2.50;;;;;;;;;;5032729;28;20868;-72
2024/02/01 10:05:07;;;;;;;9.57;2.60;;;;;;;;;;5032390;28;20484;-72
2024/02/01 10:07:34;;;;;;;7.63;2.57;;;;;;;;;;5032430;28;20488;-72
2024/02/01 10:10:03;;;;;;;7.23;3.10;;;;;;;;;;5032646;28;20445;-71
2024/02/01 10:12:31;;;;;;;8.50;2.17;;;;;;;;;;5032666;28;20456;-73
2024/02/01 10:14:57;;;;;;;5.33;1.97;;;;;;;;;;5032668;28;20449;-71
2024/02/01 10:17:27;;;;;;;6.00;1.80;;;;;;;;;;5032599;28;20878;-70
2024/02/01 10:19:54;;;;;;;6.83;2.60;;;;;;;;;;5032331;28;20445;-67
2024/02/01 10:22:21;;;;;;;8.80;1.93;;;;;;;;;;5032527;28;20503;-66
2024/02/01 10:24:51;;;;;;;6.87;1.87;;;;;;;;;;5032395;28;20536;-66
2024/02/01 10:27:19;;;;;;;5.53;2.10;;;;;;;;;;5032153;28;20473;-66
2024/02/01 10:29:46;;;;;;;5.33;2.47;;;;;;;;;;5032346;28;20499;-68
2024/02/01 10:32:14;;;;;;;6.10;1.97;;;;;;;;;;5032426;28;20507;-64
2024/02/01 10:34:45;;;;;;;7.80;2.00;;;;;;;;;;5032198;28;20809;-64
2024/02/01 10:37:15;;;;;;;5.90;1.63;;;;;;;;;;5032423;28;20453;-67
2024/02/01 10:39:46;;;;;;;4.40;1.90;;;;;;;;;;5031190;28;20453;-65
2024/02/01 10:42:14;;;;;;;3.10;1.43;;;;;;;;;;5031103;28;20877;-70
2024/02/01 10:44:44;;;;;;;8.93;1.53;;;;;;;;;;5032023;28;20531;-66
2024/02/01 10:47:15;;;;;;;7.37;3.27;;;;;;;;;;5031952;28;20477;-72
2024/02/01 10:49:52;;;;;;;8.57;2.80;;;;;;;;;;5032346;28;20445;-69
2024/02/01 10:52:19;;;;;;;7.73;1.73;;;;;;;;;;5032783;28;20445;-71
2024/02/01 10:54:47;;;;;;;3.80;1.47;;;;;;;;;;5035852;28;20445;-66
2024/02/01 10:57:14;;;;;;;6.97;2.00;;;;;;;;;;5035308;28;21029;-70
2024/02/01 10:59:43;;;;;;;5.10;1.50;;;;;;;;;;5035574;28;20445;-70
2024/02/01 11:02:10;;;;;;;4.77;1.93;;;;;;;;;;5035811;28;20453;-70
2024/02/01 11:04:38;;;;;;;5.13;1.70;;;;;;;;;;5035764;28;20848;-62
2024/02/01 11:07:07;;;;;;;4.20;1.33;;;;;;;;;;5035542;28;20492;-62
2024/02/01 11:09:35;;;;;;;4.30;1.90;;;;;;;;;;5035198;28;20445;-61
2024/02/01 11:12:03;;;;;;;5.63;1.50;;;;;;;;;;5035199;28;20455;-69
2024/02/01 11:14:31;;;;;;;3.07;1.60;;;;;;;;;;5035463;28;20448;-65
2024/02/01 11:17:01;;;;;;;4.00;1.53;;;;;;;;;;5035533;28;20801;-65
2024/02/01 11:19:31;;;;;;;6.97;1.67;;;;;;;;;;5035312;28;20454;-63
2024/02/01 11:21:59;;;;;;;3.77;1.53;;;;;;;;;;5035343;28;20544;-65
2024/02/01 11:24:28;;;;;;;4.27;2.10;;;;;;;;;;5035056;28;20957;-65
2024/02/01 11:26:57;;;;;;;8.20;1.73;;;;;;;;;;5034833;28;20520;-66
2024/02/01 11:29:25;;;;;;;6.33;1.97;;;;;;;;;;5035251;28;20445;-65
2024/02/01 11:31:56;;;;;;;6.77;1.73;;;;;;;;;;5035144;28;20829;-67
2024/02/01 11:34:23;;;;;;;4.93;1.70;;;;;;;;;;5035062;28;20445;-71
2024/02/01 11:36:50;;;;;;;3.77;1.43;;;;;;;;;;5034865;28;20544;-72
2024/02/01 11:39:17;;;;;;;5.50;2.50;;;;;;;;;;5035044;28;20537;-67
2024/02/01 11:41:47;;;;;;;4.30;1.60;;;;;;;;;;5035117;28;20445;-72
2024/02/01 11:44:14;;;;;;;4.73;1.73;;;;;;;;;;5035015;28;20445;-76
2024/02/01 11:46:45;;;;;;;4.63;2.03;;;;;;;;;;5034827;28;20484;-67
2024/02/01 11:49:16;;;;;;;7.33;1.73;;;;;;;;;;5034817;28;20452;-65
2024/02/01 11:51:43;;;;;;;6.60;1.87;;;;;;;;;;5034644;28;20454;-67
2024/02/01 11:54:10;;;;;;;7.80;1.60;;;;;;;;;;5034687;28;20424;-67
2024/02/01 11:56:37;;;;;;;7.90;1.90;;;;;;;;;;5034696;28;20535;-68
2024/02/01 11:59:06;;;;;;;4.93;1.30;;;;;;;;;;5034031;28;20540;-69
2024/02/01 12:01:33;;;;;;;8.93;1.70;;;;;;;;;;5023130;28;20473;-74
2024/02/01 12:04:00;;;;;;;8.93;1.90;;;;;;;;;;5022654;28;20533;-76
2024/02/01 12:06:27;;;;;;;6.00;2.00;;;;;;;;;;5024290;28;20840;-74
2024/02/01 12:08:59;;;;;;;5.47;1.90;;;;;;;;;;5025132;28;20541;-63
2024/02/01 12:11:33;;;;;;;8.43;1.97;;;;;;;;;;5019800;28;20446;-65
2024/02/01 12:14:02;;;;;;;5.13;1.67;;;;;;;;;;5019652;28;20445;-68
2024/02/01 12:16:31;;;;;;;7.20;3.57;;;;;;;;;;5024182;28;20911;-76
2024/02/01 12:18:59;;;;;;;11.27;1.63;;;;;;;;;;5022727;28;20934;-69
2024/02/01 12:21:27;;;;;;;13.10;2.80;;;;;;;;;;5024481;28;20526;-72
2024/02/01 12:23:56;;;;;;;9.10;2.90;;;;;;;;;;5018275;28;20453;-74
2024/02/01 12:26:23;;;;;;;7.57;2.10;;;;;;;;;;5013944;28;20582;-68
2024/02/01 12:28:51;;;;;;;5.90;1.40;;;;;;;;;;5014389;28;20537;-59
2024/02/01 12:31:18;;;;;;;7.80;1.70;;;;;;;;;;5014167;28;20446;-75
2024/02/01 12:33:46;;;;;;;4.20;1.87;;;;;;;;;;5014288;28;20456;-72
2024/02/01 12:36:13;;;;;;;6.00;2.10;;;;;;;;;;5014248;28;20533;-61
2024/02/01 12:38:41;;;;;;;11.57;3.70;;;;;;;;;;5014004;28;20538;-61
2024/02/01 12:41:10;;;;;;;8.33;2.13;;;;;;;;;;5013976;28;21025;-61
2024/02/01 12:43:37;;;;;;;6.67;1.90;;;;;;;;;;5013709;28;20486;-61
2024/02/01 12:46:04;;;;;;;10.60;3.03;;;;;;;;;;5013789;28;21182;-62
2024/02/01 12:48:31;;;;;;;9.70;3.00;;;;;;;;;;5013830;28;20533;-66
2024/02/01 12:50:59;;;;;;;7.07;1.80;;;;;;;;;;5013919;28;20485;-63
2024/02/01 12:53:26;;;;;;;6.53;2.00;;;;;;;;;;5013770;28;20545;-68
2024/02/01 12:55:53;;;;;;;9.60;1.87;;;;;;;;;;5013695;28;20450;-64
2024/02/01 12:58:20;;;;;;;6.40;1.67;;;;;;;;;;5013691;28;20634;-63
2024/02/01 13:00:47;;;;;;;5.10;1.73;;;;;;;;;;5013865;28;20964;-64
2024/02/01 13:03:14;;;;;;;8.53;2.20;;;;;;;;;;5013695;28;20529;-62
2024/02/01 13:05:43;;;;;;;11.40;1.63;;;;;;;;;;5013563;28;20541;-61
2024/02/01 13:08:14;;;;;;;5.70;1.93;;;;;;;;;;5013364;28;20450;-61
2024/02/01 13:10:44;;;;;;;7.07;2.27;;;;;;;;;;5013493;28;20509;-64
2024/02/01 13:13:11;;;;;;;7.70;2.00;;;;;;;;;;5014157;28;20863;-62
2024/02/01 13:15:38;;;;;;;9.13;2.20;;;;;;;;;;5012980;28;20453;-62
2024/02/01 13:18:11;;;;;;;10.30;2.20;;;;;;;;;;5013016;28;20533;-63
2024/02/01 13:20:38;;;;;;;4.87;3.03;;;;;;;;;;5013484;28;20522;-65
2024/02/01 13:23:08;;;;;;;13.60;2.80;;;;;;;;;;5013290;28;20533;-65
2024/02/01 13:25:37;;;;;;;9.67;2.43;;;;;;;;;;5013151;28;20562;-61
2024/02/01 13:28:04;;;;;;;3.83;2.00;;;;;;;;;;5013298;28;20524;-62
2024/02/01 13:30:31;;;;;;;5.23;2.13;;;;;;;;;;5013241;28;20483;-66
2024/02/01 13:32:59;;;;;;;9.20;2.53;;;;;;;;;;5013293;28;20477;-62
2024/02/01 13:35:26;;;;;;;9.30;2.93;;;;;;;;;;5013234;28;20516;-65
2024/02/01 13:37:55;;;;;;;12.23;2.67;;;;;;;;;;5013119;28;20500;-63
2024/02/01 13:40:22;;;;;;;6.57;1.70;;;;;;;;;;5012827;28;21007;-63
2024/02/01 13:42:52;;;;;;;9.07;1.80;;;;;;;;;;5012179;28;20826;-64
2024/02/01 13:45:19;;;;;;;9.83;2.43;;;;;;;;;;5013387;28;20513;-63
2024/02/01 13:47:49;;;;;;;13.03;2.93;;;;;;;;;;5012750;28;21103;-65
2024/02/01 13:50:16;;;;;;;7.50;2.00;;;;;;;;;;5012873;28;20501;-65
2024/02/01 13:52:43;;;;;;;8.83;2.23;;;;;;;;;;5012846;28;20899;-67
2024/02/01 13:55:11;;;;;;;4.97;2.03;;;;;;;;;;5012882;28;21013;-65
2024/02/01 13:57:39;;;;;;;7.10;2.40;;;;;;;;;;5012992;28;20508;-65
2024/02/01 14:00:15;;;;;;;8.57;2.50;;;;;;;;;;5012980;28;20815;-65
2024/02/01 14:02:42;;;;;;;12.33;1.87;;;;;;;;;;5012976;28;20544;-65
2024/02/01 14:05:09;;;;;;;7.33;1.80;;;;;;;;;;5012895;28;20529;-65
2024/02/01 14:07:36;;;;;;;8.23;2.47;;;;;;;;;;5012989;28;20520;-65
2024/02/01 14:10:03;;;;;;;18.47;3.40;;;;;;;;;;5012997;28;20882;-65
2024/02/01 14:12:30;;;;;;;16.10;3.40;;;;;;;;;;5012997;28;20530;-65
2024/02/01 14:15:00;;;;;;;8.53;2.33;;;;;;;;;;5012826;28;20481;-66
2024/02/01 14:17:28;;;;;;;10.60;2.63;;;;;;;;;;5012809;28;20445;-65
2024/02/01 14:19:56;;;;;;;5.70;3.07;;;;;;;;;;5012898;28;20533;-66
2024/02/01 14:22:23;;;;;;;8.63;2.57;;;;;;;;;;5012847;28;20534;-66
2024/02/01 14:24:52;;;;;;;6.53;2.57;;;;;;;;;;5012770;28;20442;-65
2024/02/01 14:27:18;;;;;;;4.70;2.53;;;;;;;;;;5012975;28;20521;-65
2024/02/01 14:29:45;;;;;;;7.13;2.60;;;;;;;;;;5016501;28;20446;-66
2024/02/01 14:32:13;;;;;;;14.67;3.03;;;;;;;;;;5016343;28;20489;-65
2024/02/01 14:34:42;;;;;;;11.60;3.30;;;;;;;;;;5016573;28;20446;-66
2024/02/01 14:37:11;;;;;;;9.00;2.97;;;;;;;;;;5016336;28;21021;-65
2024/02/01 14:39:38;;;;;;;11.33;4.93;;;;;;;;;;5016459;28;20831;-66
2024/02/01 14:42:05;;;;;;;9.00;3.10;;;;;;;;;;5016146;28;20957;-65
2024/02/01 14:44:32;;;;;;;6.70;2.13;;;;;;;;;;5016039;28;20564;-65
2024/02/01 14:46:59;;;;;;;6.90;2.93;;;;;;;;;;5016334;28;20834;-65
2024/02/01 14:49:26;;;;;;;6.63;3.00;;;;;;;;;;5016311;28;20446;-66
2024/02/01 14:51:54;;;;;;;8.70;2.27;;;;;;;;;;5016235;28;20545;-65
2024/02/01 14:54:23;;;;;;;5.60;1.93;;;;;;;;;;5016148;28;20445;-66
2024/02/01 14:56:50;;;;;;;7.33;2.70;;;;;;;;;;5016039;28;20500;-65
2024/02/01 14:59:17;;;;;;;7.97;2.30;;;;;;;;;;5015793;28;20803;-65
2024/02/01 15:01:44;;;;;;;13.87;3.07;;;;;;;;;;5015983;28;20857;-66
2024/02/01 15:04:11;;;;;;;12.87;3.40;;;;;;;;;;5015974;28;20545;-66
2024/02/01 15:06:38;;;;;;;7.77;2.33;;;;;;;;;;5015909;28;20473;-66
2024/02/01 15:09:08;;;;;;;6.60;1.80;;;;;;;;;;5015891;28;20874;-65
2024/02/01 15:11:35;;;;;;;10.23;2.23;;;;;;;;;;5015750;28;20573;-66
2024/02/01 15:14:02;;;;;;;9.77;2.30;;;;;;;;;;5015952;28;20825;-66
2024/02/01 15:16:32;;;;;;;5.57;2.30;;;;;;;;;;5015608;28;21016;-66
2024/02/01 15:19:00;;;;;;;9.53;2.47;;;;;;;;;;5015696;28;20482;-66
2024/02/01 15:21:30;;;;;;;9.20;2.73;;;;;;;;;;5015744;28;20845;-65
2024/02/01 15:23:57;;;;;;;8.50;2.60;;;;;;;;;;5015547;28;20889;-65
2024/02/01 15:26:25;;;;;;;14.30;3.07;;;;;;;;;;5015235;28;20818;-66